createdAt,value
2019-03-28T00:00:59.764Z,12.80
2019-03-28T00:01:59.783Z,13.20
2019-03-28T00:02:59.657Z,12.60
2019-03-28T00:03:59.632Z,12.50
2019-03-28T00:04:59.565Z,12.20
2019-03-28T00:05:59.527Z,13.00
2019-03-28T00:06:59.486Z,12.80
2019-03-28T00:07:59.436Z,13.20
2019-03-28T00:08:59.414Z,13.10
2019-03-28T00:09:59.354Z,12.40
2019-03-28T00:10:59.792Z,13.20
2019-03-28T00:11:59.271Z,12.40
2019-03-28T00:12:59.227Z,13.00
2019-03-28T00:13:59.207Z,13.10
2019-03-28T00:14:59.145Z,12.90
2019-03-28T00:15:59.096Z,12.60
2019-03-28T00:16:59.050Z,12.80
2019-03-28T00:17:59.008Z,13.00
2019-03-28T00:18:58.998Z,12.80
2019-03-28T00:19:58.932Z,13.00
2019-03-28T00:20:58.889Z,13.10
2019-03-28T00:21:58.840Z,13.70
2019-03-28T00:22:58.798Z,12.40
2019-03-28T00:23:58.762Z,12.60
2019-03-28T00:24:58.743Z,13.40
2019-03-28T00:25:58.674Z,12.80
2019-03-28T00:26:58.635Z,13.60
2019-03-28T00:27:58.581Z,13.60
2019-03-28T00:28:58.565Z,13.70
2019-03-28T00:29:58.497Z,13.70
2019-03-28T00:30:58.454Z,14.00
2019-03-28T00:31:58.416Z,14.30
2019-03-28T00:32:58.376Z,14.30
2019-03-28T00:33:58.333Z,13.10
2019-03-28T00:34:58.316Z,13.30
2019-03-28T00:35:58.239Z,13.70
2019-03-28T00:36:58.196Z,13.90
2019-03-28T00:37:58.166Z,13.20
2019-03-28T00:38:58.121Z,13.20
2019-03-28T00:39:58.098Z,13.20
2019-03-28T00:40:58.030Z,13.60
2019-03-28T00:41:57.986Z,13.70
2019-03-28T00:42:57.970Z,13.00
2019-03-28T00:43:57.902Z,13.40
2019-03-28T00:44:57.862Z,13.50
2019-03-28T00:45:57.820Z,14.10
2019-03-28T00:46:57.777Z,13.30
2019-03-28T00:47:57.728Z,13.80
2019-03-28T00:48:57.707Z,13.90
2019-03-28T00:49:57.642Z,13.50
2019-03-28T00:50:57.601Z,14.10
2019-03-28T00:51:57.587Z,14.30
2019-03-28T00:52:57.523Z,14.50
2019-03-28T00:53:57.545Z,14.80
2019-03-28T00:54:57.435Z,14.50
2019-03-28T00:55:57.398Z,14.40
2019-03-28T00:56:57.351Z,14.60
2019-03-28T00:57:57.308Z,14.40
2019-03-28T00:58:57.267Z,14.60
2019-03-28T00:59:57.238Z,15.40
2019-03-28T01:00:57.176Z,14.40
2019-03-28T01:01:57.128Z,13.40
2019-03-28T01:02:57.087Z,14.30
2019-03-28T01:03:57.053Z,14.90
2019-03-28T01:04:57.039Z,15.00
2019-03-28T01:05:56.965Z,15.10
2019-03-28T01:06:57.219Z,14.50
2019-03-28T01:07:56.877Z,14.70
2019-03-28T01:08:56.830Z,15.00
2019-03-28T01:09:57.213Z,15.50
2019-03-28T01:10:56.779Z,14.70
2019-03-28T01:11:56.703Z,15.00
2019-03-28T01:12:56.657Z,14.80
2019-03-28T01:13:56.617Z,16.00
2019-03-28T01:14:56.572Z,15.00
2019-03-28T01:15:56.535Z,14.90
2019-03-28T01:16:56.520Z,15.20
2019-03-28T01:17:56.453Z,15.20
2019-03-28T01:18:56.411Z,15.70
2019-03-28T01:19:56.361Z,15.20
2019-03-28T01:20:56.313Z,15.50
2019-03-28T01:21:56.304Z,15.70
2019-03-28T01:22:56.294Z,15.30
2019-03-28T01:23:56.194Z,15.50
2019-03-28T01:24:57.844Z,15.10
2019-03-28T01:25:56.111Z,15.20
2019-03-28T01:26:57.505Z,15.60
2019-03-28T01:27:56.059Z,15.60
2019-03-28T01:28:55.981Z,15.80
2019-03-28T01:29:55.938Z,15.70
2019-03-28T01:30:55.897Z,16.50
2019-03-28T01:31:55.848Z,16.10
2019-03-28T01:32:55.804Z,16.10
2019-03-28T01:33:55.792Z,17.00
2019-03-28T01:34:55.718Z,16.10
2019-03-28T01:35:55.685Z,16.20
2019-03-28T01:36:55.638Z,15.20
2019-03-28T01:37:55.598Z,16.10
2019-03-28T01:38:55.558Z,15.90
2019-03-28T01:39:55.529Z,15.80
2019-03-28T01:40:55.463Z,16.20
2019-03-28T01:41:55.424Z,15.20
2019-03-28T01:42:56.072Z,16.50
2019-03-28T01:43:55.330Z,16.30
2019-03-28T01:44:55.311Z,15.30
2019-03-28T01:45:55.246Z,16.20
2019-03-28T01:46:55.207Z,16.30
2019-03-28T01:47:55.170Z,16.10
2019-03-28T01:48:55.134Z,15.70
2019-03-28T01:49:55.106Z,16.00
2019-03-28T01:50:55.045Z,17.10
2019-03-28T01:51:54.991Z,16.50
2019-03-28T01:52:54.972Z,16.00
2019-03-28T01:53:54.910Z,16.30
2019-03-28T01:54:55.249Z,16.20
2019-03-28T01:55:54.826Z,15.60
2019-03-28T01:56:54.784Z,16.10
2019-03-28T01:57:54.764Z,16.00
2019-03-28T01:58:55.180Z,16.70
2019-03-28T01:59:54.653Z,16.00
2019-03-28T02:00:54.613Z,16.70
2019-03-28T02:01:54.738Z,16.20
2019-03-28T02:02:54.527Z,16.40
2019-03-28T02:03:54.499Z,16.70
2019-03-28T02:04:54.435Z,16.50
2019-03-28T02:05:54.414Z,16.90
2019-03-28T02:06:54.349Z,16.50
2019-03-28T02:07:54.337Z,17.10
2019-03-28T02:08:54.272Z,16.40
2019-03-28T02:09:54.225Z,16.50
2019-03-28T02:10:54.185Z,16.10
2019-03-28T02:11:54.135Z,15.90
2019-03-28T02:12:54.114Z,16.30
2019-03-28T02:13:54.056Z,16.20
2019-03-28T02:14:54.014Z,17.30
2019-03-28T02:15:53.963Z,17.60
2019-03-28T02:16:53.922Z,16.60
2019-03-28T02:17:53.901Z,16.80
2019-03-28T02:18:54.186Z,16.50
2019-03-28T02:19:53.799Z,16.80
2019-03-28T02:20:53.759Z,16.70
2019-03-28T02:21:53.710Z,17.30
2019-03-28T02:22:53.689Z,17.10
2019-03-28T02:23:53.627Z,17.10
2019-03-28T02:24:53.582Z,18.00
2019-03-28T02:25:53.553Z,17.00
2019-03-28T02:26:53.525Z,17.50
2019-03-28T02:27:53.453Z,17.30
2019-03-28T02:28:53.407Z,17.50
2019-03-28T02:29:53.399Z,17.80
2019-03-28T02:30:53.328Z,17.70
2019-03-28T02:31:53.281Z,17.40
2019-03-28T02:32:53.237Z,17.60
2019-03-28T02:33:53.195Z,17.20
2019-03-28T02:34:53.175Z,18.00
2019-03-28T02:35:53.120Z,16.60
2019-03-28T02:36:53.104Z,16.80
2019-03-28T02:37:53.030Z,16.10
2019-03-28T02:38:53.009Z,16.30
2019-03-28T02:39:52.937Z,17.30
2019-03-28T02:40:52.917Z,16.40
2019-03-28T02:41:52.853Z,16.60
2019-03-28T02:42:53.420Z,17.30
2019-03-28T02:43:52.774Z,17.10
2019-03-28T02:44:52.729Z,17.30
2019-03-28T02:45:52.681Z,16.10
2019-03-28T02:46:52.639Z,16.80
2019-03-28T02:47:52.632Z,16.90
2019-03-28T02:48:53.776Z,16.30
2019-03-28T02:49:52.523Z,16.60
2019-03-28T02:50:52.472Z,16.90
2019-03-28T02:51:52.421Z,17.00
2019-03-28T02:52:52.383Z,17.00
2019-03-28T02:53:52.364Z,17.80
2019-03-28T02:54:52.298Z,17.40
2019-03-28T02:55:52.267Z,17.20
2019-03-28T02:56:52.222Z,16.90
2019-03-28T02:57:52.173Z,17.00
2019-03-28T02:58:52.131Z,17.60
2019-03-28T02:59:52.110Z,17.50
2019-03-28T03:00:52.039Z,18.30
2019-03-28T03:01:52.021Z,17.50
2019-03-28T03:02:51.964Z,17.10
2019-03-28T03:03:51.917Z,18.00
2019-03-28T03:04:51.867Z,17.40
2019-03-28T03:05:51.849Z,18.00
2019-03-28T03:06:51.788Z,16.70
2019-03-28T03:07:51.743Z,17.50
2019-03-28T03:08:51.704Z,17.40
2019-03-28T03:09:51.813Z,16.80
2019-03-28T03:10:51.618Z,17.60
2019-03-28T03:11:51.572Z,17.70
2019-03-28T03:12:51.526Z,17.60
2019-03-28T03:13:51.483Z,17.70
2019-03-28T03:14:51.441Z,17.00
2019-03-28T03:15:51.433Z,16.50
2019-03-28T03:16:51.363Z,17.50
2019-03-28T03:17:51.309Z,17.60
2019-03-28T03:18:51.269Z,17.90
2019-03-28T03:19:51.465Z,17.40
2019-03-28T03:20:51.191Z,17.60
2019-03-28T03:21:51.169Z,17.00
2019-03-28T03:22:51.105Z,17.70
2019-03-28T03:23:51.055Z,17.00
2019-03-28T03:24:51.016Z,17.20
2019-03-28T03:25:50.970Z,17.00
2019-03-28T03:26:50.956Z,17.90
2019-03-28T03:27:58.355Z,17.20
2019-03-28T03:28:50.848Z,16.80
2019-03-28T03:29:50.805Z,17.10
2019-03-28T03:30:50.765Z,17.10
2019-03-28T03:31:50.717Z,17.20
2019-03-28T03:32:50.699Z,17.80
2019-03-28T03:33:50.634Z,17.10
2019-03-28T03:34:50.594Z,16.80
2019-03-28T03:35:50.544Z,17.50
2019-03-28T03:36:50.505Z,16.90
2019-03-28T03:37:50.458Z,17.50
2019-03-28T03:38:50.439Z,16.90
2019-03-28T03:39:50.382Z,16.90
2019-03-28T03:40:50.338Z,16.50
2019-03-28T03:41:50.294Z,17.40
2019-03-28T03:42:50.273Z,17.30
2019-03-28T03:43:50.202Z,18.20
2019-03-28T03:44:50.157Z,16.70
2019-03-28T03:45:50.115Z,17.30
2019-03-28T03:46:50.074Z,17.10
2019-03-28T03:47:50.061Z,17.40
2019-03-28T03:48:49.994Z,17.80
2019-03-28T03:49:49.971Z,18.40
2019-03-28T03:50:49.904Z,18.50
2019-03-28T03:51:49.866Z,18.40
2019-03-28T03:52:49.826Z,19.10
2019-03-28T03:53:49.785Z,18.20
2019-03-28T03:54:49.767Z,18.80
2019-03-28T03:55:49.689Z,17.50
2019-03-28T03:56:49.649Z,18.10
2019-03-28T03:57:49.603Z,18.00
2019-03-28T03:58:49.564Z,18.30
2019-03-28T03:59:49.536Z,18.90
2019-03-28T04:00:49.508Z,18.00
2019-03-28T04:01:49.441Z,18.30
2019-03-28T04:02:49.402Z,17.80
2019-03-28T04:03:49.349Z,18.20
2019-03-28T04:04:49.306Z,18.50
2019-03-28T04:05:49.291Z,18.60
2019-03-28T04:06:49.236Z,17.40
2019-03-28T04:07:49.177Z,18.50
2019-03-28T04:08:49.136Z,18.80
2019-03-28T04:09:49.094Z,18.30
2019-03-28T04:10:49.073Z,18.60
2019-03-28T04:11:49.017Z,19.20
2019-03-28T04:12:49.001Z,19.50
2019-03-28T04:13:48.931Z,19.00
2019-03-28T04:14:48.889Z,19.60
2019-03-28T04:15:48.859Z,19.10
2019-03-28T04:16:48.804Z,19.40
2019-03-28T04:17:48.756Z,19.80
2019-03-28T04:18:48.711Z,20.50
2019-03-28T04:19:48.673Z,21.10
2019-03-28T04:20:48.654Z,20.60
2019-03-28T04:21:48.581Z,20.80
2019-03-28T04:22:48.563Z,21.50
2019-03-28T04:23:48.501Z,21.70
2019-03-28T04:24:48.462Z,20.40
2019-03-28T04:25:48.424Z,20.20
2019-03-28T04:26:48.374Z,20.70
2019-03-28T04:27:48.351Z,20.70
2019-03-28T04:28:48.284Z,20.80
2019-03-28T04:29:48.242Z,21.60
2019-03-28T04:30:48.199Z,22.60
2019-03-28T04:31:48.163Z,23.40
2019-03-28T04:32:48.145Z,22.50
2019-03-28T04:33:48.078Z,22.70
2019-03-28T04:34:48.037Z,23.00
2019-03-28T04:35:48.697Z,23.50
2019-03-28T04:36:47.942Z,22.20
2019-03-28T04:37:47.914Z,22.70
2019-03-28T04:38:47.900Z,22.90
2019-03-28T04:39:47.819Z,22.30
2019-03-28T04:40:47.775Z,21.60
2019-03-28T04:41:47.733Z,22.30
2019-03-28T04:42:47.698Z,23.30
2019-03-28T04:43:47.650Z,22.40
2019-03-28T04:44:47.638Z,22.90
2019-03-28T04:45:47.565Z,21.40
2019-03-28T04:46:47.532Z,22.70
2019-03-28T04:47:47.473Z,22.40
2019-03-28T04:48:47.429Z,22.70
2019-03-28T04:49:47.400Z,22.50
2019-03-28T04:50:47.370Z,22.10
2019-03-28T04:51:47.309Z,21.80
2019-03-28T04:52:47.267Z,21.70
2019-03-28T04:53:47.217Z,20.90
2019-03-28T04:54:47.175Z,21.30
2019-03-28T04:55:47.328Z,20.90
2019-03-28T04:56:47.096Z,21.10
2019-03-28T04:57:47.054Z,21.50
2019-03-28T04:58:47.010Z,21.50
2019-03-28T04:59:46.960Z,21.20
2019-03-28T05:00:46.941Z,21.20
2019-03-28T05:02:01.016Z,21.40
2019-03-28T05:02:46.832Z,22.00
2019-03-28T05:03:46.795Z,22.40
2019-03-28T05:04:46.754Z,21.10
2019-03-28T05:05:46.735Z,21.10
2019-03-28T05:06:46.697Z,21.80
2019-03-28T05:07:46.641Z,21.60
2019-03-28T05:08:46.579Z,22.70
2019-03-28T05:09:46.542Z,22.10
2019-03-28T05:10:46.499Z,22.30
2019-03-28T05:11:46.479Z,23.10
2019-03-28T05:12:46.407Z,22.40
2019-03-28T05:13:46.363Z,22.70
2019-03-28T05:14:46.322Z,22.20
2019-03-28T05:15:46.283Z,22.70
2019-03-28T05:16:46.242Z,22.50
2019-03-28T05:17:46.236Z,22.30
2019-03-28T05:18:46.161Z,22.70
2019-03-28T05:19:46.115Z,22.60
2019-03-28T05:20:46.063Z,21.90
2019-03-28T05:21:46.022Z,22.60
2019-03-28T05:22:46.003Z,22.40
2019-03-28T05:23:45.943Z,23.20
2019-03-28T05:24:45.900Z,22.60
2019-03-28T05:25:45.850Z,21.40
2019-03-28T05:26:45.812Z,23.40
2019-03-28T05:27:45.796Z,22.80
2019-03-28T05:28:56.905Z,22.40
2019-03-28T05:29:45.687Z,22.70
2019-03-28T05:30:45.645Z,22.50
2019-03-28T05:31:45.595Z,22.10
2019-03-28T05:32:45.578Z,22.80
2019-03-28T05:33:45.511Z,21.50
2019-03-28T05:34:45.468Z,21.70
2019-03-28T05:35:45.431Z,21.00
2019-03-28T05:36:45.390Z,20.10
2019-03-28T05:37:45.346Z,21.40
2019-03-28T05:38:45.327Z,21.50
2019-03-28T05:39:45.392Z,22.30
2019-03-28T05:40:45.217Z,22.80
2019-03-28T05:41:45.174Z,22.50
2019-03-28T05:42:45.135Z,22.50
2019-03-28T05:43:45.578Z,22.40
2019-03-28T05:44:45.067Z,22.10
2019-03-28T05:45:47.502Z,22.00
2019-03-28T05:46:44.956Z,22.40
2019-03-28T05:47:44.922Z,21.70
2019-03-28T05:48:44.877Z,22.00
2019-03-28T05:49:44.865Z,22.70
2019-03-28T05:50:44.793Z,23.20
2019-03-28T05:51:44.744Z,22.10
2019-03-28T05:52:44.697Z,22.60
2019-03-28T05:53:44.658Z,23.00
2019-03-28T05:54:44.615Z,23.10
2019-03-28T05:55:44.600Z,22.80
2019-03-28T05:56:44.536Z,22.40
2019-03-28T05:57:44.486Z,22.50
2019-03-28T05:58:44.469Z,22.50
2019-03-28T05:59:45.324Z,22.40
2019-03-28T06:00:44.363Z,22.60
2019-03-28T06:01:44.323Z,22.80
2019-03-28T06:02:44.279Z,23.40
2019-03-28T06:03:44.256Z,22.70
2019-03-28T06:04:44.212Z,22.50
2019-03-28T06:05:44.145Z,22.80
2019-03-28T06:06:44.324Z,22.40
2019-03-28T06:07:44.066Z,23.40
2019-03-28T06:08:44.023Z,22.90
2019-03-28T06:09:44.526Z,21.90
2019-03-28T06:10:43.939Z,23.00
2019-03-28T06:11:43.892Z,22.80
2019-03-28T06:12:43.846Z,22.80
2019-03-28T06:13:43.809Z,22.70
2019-03-28T06:14:43.791Z,22.30
2019-03-28T06:15:43.747Z,23.20
2019-03-28T06:16:43.744Z,23.20
2019-03-28T06:17:43.635Z,22.90
2019-03-28T06:18:43.591Z,23.70
2019-03-28T06:19:43.575Z,23.10
2019-03-28T06:20:43.540Z,22.70
2019-03-28T06:21:43.469Z,22.90
2019-03-28T06:22:43.427Z,22.60
2019-03-28T06:23:43.379Z,23.30
2019-03-28T06:24:43.352Z,24.10
2019-03-28T06:25:43.300Z,25.00
2019-03-28T06:26:43.289Z,23.50
2019-03-28T06:27:43.214Z,24.00
2019-03-28T06:28:43.170Z,23.70
2019-03-28T06:29:43.128Z,24.90
2019-03-28T06:30:43.079Z,24.80
2019-03-28T06:31:54.551Z,24.20
2019-03-28T06:32:43.538Z,24.20
2019-03-28T06:33:42.983Z,25.30
2019-03-28T06:34:42.917Z,25.20
2019-03-28T06:35:42.870Z,24.50
2019-03-28T06:36:42.826Z,24.10
2019-03-28T06:37:42.783Z,25.90
2019-03-28T06:38:42.767Z,25.20
2019-03-28T06:39:42.705Z,25.30
2019-03-28T06:40:42.666Z,25.10
2019-03-28T06:41:44.350Z,25.50
2019-03-28T06:42:42.577Z,25.80
2019-03-28T06:43:42.549Z,25.10
2019-03-28T06:44:42.483Z,25.30
2019-03-28T06:45:42.449Z,25.40
2019-03-28T06:46:42.406Z,26.30
2019-03-28T06:47:42.381Z,25.80
2019-03-28T06:48:42.315Z,26.20
2019-03-28T06:49:42.271Z,26.70
2019-03-28T06:50:42.229Z,26.40
2019-03-28T06:51:42.192Z,26.30
2019-03-28T06:52:42.174Z,25.50
2019-03-28T06:53:42.109Z,24.80
2019-03-28T06:54:42.068Z,22.30
2019-03-28T06:55:42.016Z,22.60
2019-03-28T06:56:41.977Z,23.80
2019-03-28T06:57:41.956Z,22.70
2019-03-28T06:58:41.893Z,22.60
2019-03-28T06:59:41.874Z,23.30
2019-03-28T07:00:41.811Z,24.10
2019-03-28T07:01:41.762Z,23.10
2019-03-28T07:02:41.745Z,24.50
2019-03-28T07:03:41.685Z,23.60
2019-03-28T07:04:41.642Z,25.10
2019-03-28T07:05:41.624Z,25.10
2019-03-28T07:06:41.557Z,25.20
2019-03-28T07:07:41.508Z,24.60
2019-03-28T07:08:41.467Z,25.40
2019-03-28T07:09:41.428Z,24.60
2019-03-28T07:10:41.407Z,25.40
2019-03-28T07:11:41.348Z,24.60
2019-03-28T07:12:41.334Z,25.30
2019-03-28T07:13:41.262Z,24.90
2019-03-28T07:14:41.222Z,25.10
2019-03-28T07:15:41.176Z,26.10
2019-03-28T07:16:41.133Z,25.60
2019-03-28T07:17:41.096Z,26.90
2019-03-28T07:18:41.079Z,26.20
2019-03-28T07:19:41.005Z,25.50
2019-03-28T07:20:40.965Z,25.20
2019-03-28T07:21:40.922Z,26.20
2019-03-28T07:22:40.883Z,25.30
2019-03-28T07:23:40.867Z,25.90
2019-03-28T07:24:40.803Z,25.40
2019-03-28T07:25:40.763Z,25.40
2019-03-28T07:26:40.721Z,25.20
2019-03-28T07:27:40.671Z,25.30
2019-03-28T07:28:40.657Z,26.30
2019-03-28T07:29:50.271Z,26.50
2019-03-28T07:30:40.550Z,26.80
2019-03-28T07:31:40.626Z,26.10
2019-03-28T07:32:43.219Z,26.60
2019-03-28T07:33:40.445Z,27.10
2019-03-28T07:34:40.382Z,26.00
2019-03-28T07:35:40.352Z,26.20
2019-03-28T07:36:40.303Z,25.30
2019-03-28T07:37:40.263Z,28.20
2019-03-28T07:38:40.249Z,26.10
2019-03-28T07:39:40.174Z,24.70
2019-03-28T07:40:40.130Z,25.40
2019-03-28T07:41:40.091Z,25.40
2019-03-28T07:42:40.053Z,25.80
2019-03-28T07:43:40.013Z,25.00
2019-03-28T07:44:39.995Z,26.70
2019-03-28T07:45:39.937Z,25.40
2019-03-28T07:46:39.889Z,26.90
2019-03-28T07:47:39.842Z,26.60
2019-03-28T07:48:39.801Z,26.40
2019-03-28T07:49:39.788Z,28.40
2019-03-28T07:50:42.419Z,27.60
2019-03-28T07:51:39.702Z,26.90
2019-03-28T07:52:39.635Z,26.60
2019-03-28T07:53:39.595Z,28.80
2019-03-28T07:54:39.565Z,27.50
2019-03-28T07:55:39.541Z,28.00
2019-03-28T07:56:39.499Z,26.70
2019-03-28T07:57:39.433Z,26.60
2019-03-28T07:58:39.403Z,27.60
2019-03-28T07:59:39.351Z,26.40
2019-03-28T08:00:39.344Z,27.20
2019-03-28T08:01:39.277Z,26.40
2019-03-28T08:02:39.225Z,27.10
2019-03-28T08:03:40.082Z,27.30
2019-03-28T08:04:39.148Z,28.30
2019-03-28T08:05:39.137Z,27.80
2019-03-28T08:06:49.134Z,27.40
2019-03-28T08:07:44.778Z,28.40
2019-03-28T08:08:39.213Z,29.20
2019-03-28T08:09:38.952Z,28.60
2019-03-28T08:10:38.981Z,27.80
2019-03-28T08:11:39.049Z,27.60
2019-03-28T08:12:38.868Z,28.00
2019-03-28T08:13:38.791Z,28.20
2019-03-28T08:14:38.750Z,28.30
2019-03-28T08:15:38.709Z,28.20
2019-03-28T08:16:38.684Z,27.60
2019-03-28T08:17:38.697Z,28.70
2019-03-28T08:18:38.609Z,30.10
2019-03-28T08:19:41.494Z,28.10
2019-03-28T08:20:38.513Z,27.30
2019-03-28T08:21:38.495Z,27.70
2019-03-28T08:22:38.442Z,27.80
2019-03-28T08:23:38.394Z,27.60
2019-03-28T08:24:38.329Z,27.20
2019-03-28T08:25:38.294Z,26.90
2019-03-28T08:26:38.258Z,26.90
2019-03-28T08:27:38.250Z,27.60
2019-03-28T08:28:38.207Z,26.90
2019-03-28T08:29:38.175Z,26.80
2019-03-28T08:30:38.135Z,27.60
2019-03-28T08:31:40.551Z,27.70
2019-03-28T08:32:39.803Z,27.80
2019-03-28T08:33:37.979Z,27.30
2019-03-28T08:34:37.983Z,29.00
2019-03-28T08:35:37.941Z,27.40
2019-03-28T08:36:37.865Z,28.30
2019-03-28T08:37:37.819Z,27.80
2019-03-28T08:38:37.786Z,28.10
2019-03-28T08:39:37.735Z,27.90
2019-03-28T08:40:39.584Z,27.70
2019-03-28T08:41:37.664Z,26.60
2019-03-28T08:42:37.640Z,28.00
2019-03-28T08:43:37.579Z,26.80
2019-03-28T08:44:38.543Z,26.50
2019-03-28T08:45:37.496Z,27.00
2019-03-28T08:46:37.499Z,27.00
2019-03-28T08:47:37.420Z,26.80
2019-03-28T08:48:37.361Z,26.60
2019-03-28T08:49:37.369Z,27.00
2019-03-28T08:50:37.296Z,27.20
2019-03-28T08:51:37.448Z,26.50
2019-03-28T08:52:37.207Z,26.50
2019-03-28T08:53:37.302Z,26.70
2019-03-28T08:54:37.124Z,26.20
2019-03-28T08:55:37.080Z,27.20
2019-03-28T08:56:37.071Z,25.70
2019-03-28T08:57:37.034Z,26.40
2019-03-28T08:58:38.278Z,25.80
2019-03-28T08:59:36.934Z,25.80
2019-03-28T09:00:50.998Z,26.00
2019-03-28T09:01:36.858Z,25.20
2019-03-28T09:02:36.850Z,25.00
2019-03-28T09:03:36.756Z,26.30
2019-03-28T09:04:36.728Z,25.30
2019-03-28T09:05:36.683Z,26.50
2019-03-28T09:06:36.727Z,25.30
2019-03-28T09:07:36.646Z,25.10
2019-03-28T09:08:36.577Z,26.40
2019-03-28T09:09:36.536Z,25.70
2019-03-28T09:10:36.520Z,25.20
2019-03-28T09:11:36.460Z,25.10
2019-03-28T09:12:36.423Z,25.00
2019-03-28T09:13:36.386Z,26.80
2019-03-28T09:14:36.352Z,26.60
2019-03-28T09:15:43.458Z,26.40
2019-03-28T09:16:36.239Z,27.30
2019-03-28T09:17:36.209Z,26.20
2019-03-28T09:18:36.190Z,26.70
2019-03-28T09:19:38.802Z,26.20
2019-03-28T09:20:36.088Z,25.80
2019-03-28T09:21:36.043Z,25.90
2019-03-28T09:22:38.853Z,26.20
2019-03-28T09:23:35.996Z,26.60
2019-03-28T09:24:35.931Z,26.00
2019-03-28T09:25:35.882Z,26.50
2019-03-28T09:26:35.852Z,25.60
2019-03-28T09:27:35.817Z,26.20
2019-03-28T09:28:35.765Z,25.40
2019-03-28T09:29:35.743Z,24.60
2019-03-28T09:30:47.625Z,26.60
2019-03-28T09:31:35.655Z,26.80
2019-03-28T09:32:35.599Z,26.00
2019-03-28T09:33:35.556Z,26.20
2019-03-28T09:34:35.571Z,26.50
2019-03-28T09:35:35.509Z,26.00
2019-03-28T09:36:35.514Z,26.30
2019-03-28T09:37:35.391Z,26.10
2019-03-28T09:38:35.368Z,25.90
2019-03-28T09:39:35.346Z,26.10
2019-03-28T09:40:35.275Z,26.80
2019-03-28T09:41:35.232Z,27.20
2019-03-28T09:42:35.188Z,26.00
2019-03-28T09:43:35.156Z,25.40
2019-03-28T09:44:35.140Z,26.00
2019-03-28T09:45:35.078Z,26.60
2019-03-28T09:46:35.060Z,27.40
2019-03-28T09:47:35.003Z,26.10
2019-03-28T09:48:34.995Z,27.20
2019-03-28T09:49:34.912Z,25.80
2019-03-28T09:50:34.884Z,26.60
2019-03-28T09:51:35.413Z,25.10
2019-03-28T09:52:34.813Z,24.30
2019-03-28T09:53:34.768Z,24.50
2019-03-28T09:54:34.745Z,24.40
2019-03-28T09:55:34.673Z,23.80
2019-03-28T09:56:34.659Z,24.90
2019-03-28T09:57:34.607Z,24.60
2019-03-28T09:58:34.612Z,25.20
2019-03-28T09:59:34.549Z,25.00
2019-03-28T10:00:34.705Z,24.90
2019-03-28T10:01:34.567Z,24.50
2019-03-28T10:02:34.421Z,24.30
2019-03-28T10:03:34.369Z,24.40
2019-03-28T10:04:34.355Z,24.60
2019-03-28T10:05:37.730Z,25.30
2019-03-28T10:06:34.250Z,25.50
2019-03-28T10:07:34.210Z,25.20
2019-03-28T10:08:34.167Z,23.50
2019-03-28T10:09:34.386Z,24.10
2019-03-28T10:10:34.092Z,24.00
2019-03-28T10:11:34.066Z,24.30
2019-03-28T10:12:34.345Z,23.60
2019-03-28T10:13:33.996Z,24.40
2019-03-28T10:14:33.977Z,24.50
2019-03-28T10:15:36.752Z,24.00
2019-03-28T10:16:33.872Z,24.50
2019-03-28T10:17:33.835Z,24.70
2019-03-28T10:18:33.809Z,23.70
2019-03-28T10:19:33.759Z,24.70
2019-03-28T10:20:33.760Z,24.60
2019-03-28T10:21:33.678Z,23.20
2019-03-28T10:22:33.643Z,24.10
2019-03-28T10:23:33.616Z,23.40
2019-03-28T10:24:33.600Z,24.80
2019-03-28T10:25:33.565Z,22.50
2019-03-28T10:26:33.501Z,22.50
2019-03-28T10:27:33.457Z,23.10
2019-03-28T10:28:33.424Z,22.80
2019-03-28T10:29:33.383Z,21.30
2019-03-28T10:30:33.391Z,23.00
2019-03-28T10:31:33.301Z,21.40
2019-03-28T10:32:33.306Z,21.40
2019-03-28T10:33:33.226Z,21.40
2019-03-28T10:34:33.192Z,22.30
2019-03-28T10:35:33.162Z,20.90
2019-03-28T10:36:33.120Z,20.60
2019-03-28T10:37:33.095Z,19.70
2019-03-28T10:38:33.084Z,19.50
2019-03-28T10:39:33.022Z,18.90
2019-03-28T10:40:32.979Z,17.60
2019-03-28T10:41:32.934Z,16.20
2019-03-28T10:42:32.899Z,16.10
2019-03-28T10:43:32.895Z,15.80
2019-03-28T10:44:32.833Z,16.10
2019-03-28T10:45:33.735Z,15.60
2019-03-28T10:46:32.747Z,17.30
2019-03-28T10:47:32.721Z,16.30
2019-03-28T10:48:32.686Z,15.80
2019-03-28T10:49:32.682Z,15.90
2019-03-28T10:50:40.750Z,16.90
2019-03-28T10:51:32.572Z,15.80
2019-03-28T10:52:32.538Z,15.50
2019-03-28T10:53:32.519Z,16.20
2019-03-28T10:54:32.466Z,15.60
2019-03-28T10:55:32.427Z,14.90
2019-03-28T10:56:32.387Z,15.90
2019-03-28T10:57:32.545Z,15.90
2019-03-28T10:58:34.832Z,16.40
2019-03-28T10:59:32.294Z,15.70
2019-03-28T11:00:32.239Z,17.20
2019-03-28T11:01:47.512Z,19.40
2019-03-28T11:02:32.222Z,19.00
2019-03-28T11:03:32.127Z,18.70
2019-03-28T11:04:32.123Z,18.10
2019-03-28T11:05:32.054Z,19.60
2019-03-28T11:06:32.452Z,18.80
2019-03-28T11:07:31.993Z,19.60
2019-03-28T11:08:31.959Z,19.00
2019-03-28T11:09:31.932Z,20.50
2019-03-28T11:10:31.919Z,22.10
2019-03-28T11:11:31.846Z,21.60
2019-03-28T11:12:31.819Z,20.80
2019-03-28T11:13:31.784Z,20.80
2019-03-28T11:14:31.732Z,20.90
2019-03-28T11:15:31.723Z,21.20
2019-03-28T11:16:31.666Z,21.00
2019-03-28T11:17:31.628Z,21.40
2019-03-28T11:18:31.589Z,20.40
2019-03-28T11:19:31.565Z,21.90
2019-03-28T11:20:31.545Z,21.10
2019-03-28T11:21:34.179Z,20.80
2019-03-28T11:22:31.451Z,20.50
2019-03-28T11:23:31.414Z,20.10
2019-03-28T11:24:31.603Z,19.70
2019-03-28T11:25:31.337Z,19.90
2019-03-28T11:26:31.584Z,18.80
2019-03-28T11:27:31.290Z,19.90
2019-03-28T11:28:31.236Z,20.10
2019-03-28T11:29:31.199Z,22.50
2019-03-28T11:30:31.164Z,23.70
2019-03-28T11:31:31.124Z,23.30
2019-03-28T11:32:31.119Z,24.40
2019-03-28T11:33:31.061Z,23.60
2019-03-28T11:34:31.019Z,22.20
2019-03-28T11:35:30.982Z,22.30
2019-03-28T11:36:30.950Z,22.60
2019-03-28T11:37:30.948Z,22.70
2019-03-28T11:38:30.877Z,22.60
2019-03-28T11:39:30.842Z,22.60
2019-03-28T11:40:30.811Z,22.20
2019-03-28T11:41:30.771Z,19.00
2019-03-28T11:42:30.766Z,18.10
2019-03-28T11:43:30.694Z,18.00
2019-03-28T11:44:30.654Z,17.50
2019-03-28T11:45:30.625Z,17.10
2019-03-28T11:46:30.597Z,17.60
2019-03-28T11:47:30.586Z,18.80
2019-03-28T11:48:30.519Z,18.70
2019-03-28T11:49:30.483Z,18.20
2019-03-28T11:50:30.443Z,18.40
2019-03-28T11:51:30.706Z,19.00
2019-03-28T11:52:30.382Z,18.50
2019-03-28T11:53:30.366Z,19.80
2019-03-28T11:54:30.331Z,21.40
2019-03-28T11:55:30.265Z,22.20
2019-03-28T11:56:30.230Z,22.60
2019-03-28T11:57:30.191Z,22.00
2019-03-28T11:58:30.180Z,20.00
2019-03-28T11:59:30.152Z,19.20
2019-03-28T12:00:30.090Z,20.10
2019-03-28T12:01:30.057Z,19.90
2019-03-28T12:02:30.016Z,19.60
2019-03-28T12:03:30.008Z,18.60
2019-03-28T12:04:29.946Z,18.10
2019-03-28T12:05:29.908Z,18.20
2019-03-28T12:06:29.879Z,18.30
2019-03-28T12:07:29.833Z,17.40
2019-03-28T12:08:29.802Z,16.90
2019-03-28T12:09:29.781Z,17.10
2019-03-28T12:10:29.721Z,17.00
2019-03-28T12:11:29.687Z,17.30
2019-03-28T12:12:29.651Z,17.40
2019-03-28T12:13:29.637Z,17.30
2019-03-28T12:14:29.645Z,17.50
2019-03-28T12:15:29.539Z,17.60
2019-03-28T12:16:29.501Z,17.50
2019-03-28T12:17:29.470Z,18.10
2019-03-28T12:18:29.433Z,18.10
2019-03-28T12:19:29.408Z,16.40
2019-03-28T12:20:29.388Z,16.50
2019-03-28T12:21:29.330Z,15.40
2019-03-28T12:22:29.285Z,15.30
2019-03-28T12:23:29.260Z,14.40
2019-03-28T12:24:29.249Z,14.60
2019-03-28T12:25:29.198Z,14.30
2019-03-28T12:26:29.151Z,14.40
2019-03-28T12:27:29.110Z,15.60
2019-03-28T12:28:29.069Z,15.30
2019-03-28T12:29:29.063Z,15.80
2019-03-28T12:30:29.009Z,15.40
2019-03-28T12:31:28.972Z,15.30
2019-03-28T12:32:28.929Z,15.40
2019-03-28T12:33:28.898Z,15.20
2019-03-28T12:34:28.873Z,15.40
2019-03-28T12:35:28.849Z,15.30
2019-03-28T12:36:28.781Z,15.10
2019-03-28T12:37:28.753Z,15.50
2019-03-28T12:38:28.931Z,15.20
2019-03-28T12:39:28.687Z,14.70
2019-03-28T12:40:28.638Z,14.90
2019-03-28T12:41:28.629Z,13.80
2019-03-28T12:42:28.564Z,13.70
2019-03-28T12:43:28.541Z,14.30
2019-03-28T12:44:28.505Z,13.60
2019-03-28T12:45:28.519Z,14.10
2019-03-28T12:46:28.427Z,14.80
2019-03-28T12:47:41.295Z,14.80
2019-03-28T12:48:28.355Z,14.30
2019-03-28T12:49:28.311Z,14.10
2019-03-28T12:50:28.275Z,14.40
2019-03-28T12:51:28.249Z,13.50
2019-03-28T12:52:29.784Z,13.70